sensor_id;sensor_type;location;lat;lon;timestamp;pressure;altitude;pressure_sealevel;temperature;humidity
36014;BME280;22275;43.208;27.620;2022-10-16T00:01:28;102058.13;;;13.35;100.00
36014;BME280;22275;43.208;27.620;2022-10-16T00:03:56;102067.63;;;13.39;100.00
36014;BME280;22275;43.208;27.620;2022-10-16T00:06:24;102067.69;;;13.37;100.00
36014;BME280;22275;43.208;27.620;2022-10-16T00:08:52;102060.31;;;13.44;100.00
36014;BME280;22275;43.208;27.620;2022-10-16T00:11:22;102069.31;;;13.40;100.00
36014;BME280;22275;43.208;27.620;2022-10-16T00:13:51;102059.53;;;13.24;100.00
36014;BME280;22275;43.208;27.620;2022-10-16T00:16:19;102068.81;;;13.14;100.00
36014;BME280;22275;43.208;27.620;2022-10-16T00:18:46;102066.47;;;13.08;100.00
36014;BME280;22275;43.208;27.620;2022-10-16T00:21:16;102075.59;;;13.20;100.00
36014;BME280;22275;43.208;27.620;2022-10-16T00:23:44;102075.97;;;13.12;100.00
36014;BME280;22275;43.208;27.620;2022-10-16T00:26:14;102071.75;;;13.08;100.00
36014;BME280;22275;43.208;27.620;2022-10-16T00:28:45;102071.53;;;13.66;100.00
36014;BME280;22275;43.208;27.620;2022-10-16T00:31:13;102075.28;;;13.45;100.00
36014;BME280;22275;43.208;27.620;2022-10-16T00:33:41;102064.34;;;13.68;100.00
36014;BME280;22275;43.208;27.620;2022-10-16T00:36:10;102071.19;;;13.38;100.00
36014;BME280;22275;43.208;27.620;2022-10-16T00:38:38;102071.13;;;13.22;100.00
36014;BME280;22275;43.208;27.620;2022-10-16T00:41:06;102072.41;;;13.13;100.00
36014;BME280;22275;43.208;27.620;2022-10-16T00:43:39;102075.84;;;12.78;100.00
36014;BME280;22275;43.208;27.620;2022-10-16T00:46:14;102072.75;;;12.68;100.00
36014;BME280;22275;43.208;27.620;2022-10-16T00:48:44;102071.72;;;12.91;100.00
36014;BME280;22275;43.208;27.620;2022-10-16T00:51:12;102082.56;;;12.48;100.00
36014;BME280;22275;43.208;27.620;2022-10-16T00:53:40;102073.22;;;12.21;100.00
36014;BME280;22275;43.208;27.620;2022-10-16T00:56:08;102068.41;;;12.49;100.00
36014;BME280;22275;43.208;27.620;2022-10-16T00:58:35;102073.31;;;12.38;100.00
36014;BME280;22275;43.208;27.620;2022-10-16T01:01:02;102071.13;;;12.29;100.00
36014;BME280;22275;43.208;27.620;2022-10-16T01:03:33;102081.50;;;12.13;100.00
36014;BME280;22275;43.208;27.620;2022-10-16T01:06:20;102084.09;;;12.15;100.00
36014;BME280;22275;43.208;27.620;2022-10-16T01:09:00;102088.06;;;12.04;100.00
36014;BME280;22275;43.208;27.620;2022-10-16T01:11:33;102090.94;;;12.19;100.00
36014;BME280;22275;43.208;27.620;2022-10-16T01:14:06;102095.31;;;11.99;100.00
36014;BME280;22275;43.208;27.620;2022-10-16T01:16:40;102101.03;;;11.69;100.00
36014;BME280;22275;43.208;27.620;2022-10-16T01:19:17;102107.06;;;11.50;100.00
36014;BME280;22275;43.208;27.620;2022-10-16T01:21:48;102104.22;;;11.55;100.00
36014;BME280;22275;43.208;27.620;2022-10-16T01:24:25;102110.25;;;11.59;100.00
36014;BME280;22275;43.208;27.620;2022-10-16T01:27:13;102115.91;;;11.49;100.00
36014;BME280;22275;43.208;27.620;2022-10-16T01:29:49;102117.00;;;11.66;100.00
36014;BME280;22275;43.208;27.620;2022-10-16T01:32:23;102123.13;;;11.66;100.00
36014;BME280;22275;43.208;27.620;2022-10-16T01:34:58;102119.34;;;11.51;100.00
36014;BME280;22275;43.208;27.620;2022-10-16T01:37:32;102116.22;;;11.42;100.00
36014;BME280;22275;43.208;27.620;2022-10-16T01:40:05;102112.41;;;11.49;100.00
36014;BME280;22275;43.208;27.620;2022-10-16T01:42:37;102122.16;;;11.47;100.00
36014;BME280;22275;43.208;27.620;2022-10-16T01:45:08;102115.41;;;11.62;100.00
36014;BME280;22275;43.208;27.620;2022-10-16T01:47:39;102122.75;;;11.75;100.00
36014;BME280;22275;43.208;27.620;2022-10-16T01:50:08;102112.19;;;11.75;100.00
36014;BME280;22275;43.208;27.620;2022-10-16T01:52:39;102126.34;;;11.74;100.00
36014;BME280;22275;43.208;27.620;2022-10-16T01:55:09;102116.25;;;11.62;100.00
36014;BME280;22275;43.208;27.620;2022-10-16T01:57:41;102116.63;;;11.53;100.00
36014;BME280;22275;43.208;27.620;2022-10-16T02:00:12;102124.78;;;11.47;100.00
36014;BME280;22275;43.208;27.620;2022-10-16T02:02:41;102121.94;;;11.31;100.00
36014;BME280;22275;43.208;27.620;2022-10-16T02:05:14;102126.22;;;11.34;100.00
36014;BME280;22275;43.208;27.620;2022-10-16T02:07:43;102125.91;;;11.20;100.00
36014;BME280;22275;43.208;27.620;2022-10-16T02:10:10;102128.06;;;11.10;100.00
36014;BME280;22275;43.208;27.620;2022-10-16T02:12:42;102118.00;;;11.20;100.00
36014;BME280;22275;43.208;27.620;2022-10-16T02:15:11;102125.00;;;11.21;100.00
36014;BME280;22275;43.208;27.620;2022-10-16T02:17:38;102131.97;;;11.22;100.00
36014;BME280;22275;43.208;27.620;2022-10-16T02:20:06;102136.81;;;11.11;100.00
36014;BME280;22275;43.208;27.620;2022-10-16T02:22:36;102134.78;;;10.95;100.00
36014;BME280;22275;43.208;27.620;2022-10-16T02:25:10;102138.22;;;10.98;100.00
36014;BME280;22275;43.208;27.620;2022-10-16T02:27:42;102143.00;;;10.88;100.00
36014;BME280;22275;43.208;27.620;2022-10-16T02:30:15;102139.03;;;10.76;100.00
36014;BME280;22275;43.208;27.620;2022-10-16T02:32:47;102135.81;;;10.70;100.00
36014;BME280;22275;43.208;27.620;2022-10-16T02:35:17;102142.19;;;10.63;100.00
36014;BME280;22275;43.208;27.620;2022-10-16T02:37:46;102145.06;;;10.57;100.00
36014;BME280;22275;43.208;27.620;2022-10-16T02:40:14;102153.25;;;10.49;100.00
36014;BME280;22275;43.208;27.620;2022-10-16T02:42:43;102160.03;;;10.05;100.00
36014;BME280;22275;43.208;27.620;2022-10-16T02:45:11;102161.97;;;10.00;100.00
36014;BME280;22275;43.208;27.620;2022-10-16T02:47:38;102164.69;;;9.99;100.00
36014;BME280;22275;43.208;27.620;2022-10-16T02:50:06;102147.03;;;9.76;100.00
36014;BME280;22275;43.208;27.620;2022-10-16T02:52:34;102149.28;;;9.87;100.00
36014;BME280;22275;43.208;27.620;2022-10-16T02:55:01;102156.25;;;9.88;100.00
36014;BME280;22275;43.208;27.620;2022-10-16T02:57:28;102154.06;;;9.75;100.00
36014;BME280;22275;43.208;27.620;2022-10-16T02:59:58;102155.75;;;10.03;100.00
36014;BME280;22275;43.208;27.620;2022-10-16T03:02:25;102149.31;;;10.11;100.00
36014;BME280;22275;43.208;27.620;2022-10-16T03:04:52;102147.47;;;10.15;100.00
36014;BME280;22275;43.208;27.620;2022-10-16T03:07:20;102161.66;;;10.09;100.00
36014;BME280;22275;43.208;27.620;2022-10-16T03:09:47;102169.13;;;10.23;100.00
36014;BME280;22275;43.208;27.620;2022-10-16T03:12:14;102165.78;;;10.43;100.00
36014;BME280;22275;43.208;27.620;2022-10-16T03:14:41;102165.63;;;10.70;100.00
36014;BME280;22275;43.208;27.620;2022-10-16T03:17:10;102163.72;;;10.97;100.00
36014;BME280;22275;43.208;27.620;2022-10-16T03:19:38;102167.78;;;11.06;100.00
36014;BME280;22275;43.208;27.620;2022-10-16T03:22:05;102167.25;;;11.19;100.00
36014;BME280;22275;43.208;27.620;2022-10-16T03:24:33;102169.03;;;11.19;100.00
36014;BME280;22275;43.208;27.620;2022-10-16T03:27:00;102172.22;;;11.27;100.00
36014;BME280;22275;43.208;27.620;2022-10-16T03:29:27;102173.75;;;11.32;100.00
36014;BME280;22275;43.208;27.620;2022-10-16T03:31:55;102172.38;;;11.24;100.00
36014;BME280;22275;43.208;27.620;2022-10-16T03:34:24;102179.78;;;10.91;100.00
36014;BME280;22275;43.208;27.620;2022-10-16T03:36:52;102191.13;;;10.45;100.00
36014;BME280;22275;43.208;27.620;2022-10-16T03:39:19;102193.75;;;10.47;100.00
36014;BME280;22275;43.208;27.620;2022-10-16T03:41:46;102178.22;;;10.62;100.00
36014;BME280;22275;43.208;27.620;2022-10-16T03:44:14;102184.75;;;10.52;100.00
36014;BME280;22275;43.208;27.620;2022-10-16T03:46:41;102189.94;;;10.54;100.00
36014;BME280;22275;43.208;27.620;2022-10-16T03:49:08;102183.78;;;10.55;100.00
36014;BME280;22275;43.208;27.620;2022-10-16T03:51:37;102187.28;;;10.55;100.00
36014;BME280;22275;43.208;27.620;2022-10-16T03:54:04;102193.41;;;10.31;100.00
36014;BME280;22275;43.208;27.620;2022-10-16T03:56:32;102191.25;;;10.42;100.00
36014;BME280;22275;43.208;27.620;2022-10-16T03:58:59;102190.66;;;10.08;100.00
36014;BME280;22275;43.208;27.620;2022-10-16T04:01:26;102193.72;;;9.96;100.00
36014;BME280;22275;43.208;27.620;2022-10-16T04:03:54;102210.22;;;10.01;100.00
36014;BME280;22275;43.208;27.620;2022-10-16T04:06:21;102203.53;;;9.91;100.00
36014;BME280;22275;43.208;27.620;2022-10-16T04:08:49;102210.03;;;10.07;100.00
36014;BME280;22275;43.208;27.620;2022-10-16T04:11:17;102205.84;;;9.73;100.00
36014;BME280;22275;43.208;27.620;2022-10-16T04:13:44;102201.13;;;9.85;100.00
36014;BME280;22275;43.208;27.620;2022-10-16T04:16:11;102198.06;;;9.97;100.00
36014;BME280;22275;43.208;27.620;2022-10-16T04:18:38;102194.44;;;9.74;100.00
36014;BME280;22275;43.208;27.620;2022-10-16T04:21:06;102193.22;;;9.85;100.00
36014;BME280;22275;43.208;27.620;2022-10-16T04:23:34;102196.16;;;10.02;100.00
36014;BME280;22275;43.208;27.620;2022-10-16T04:26:03;102196.31;;;10.23;100.00
36014;BME280;22275;43.208;27.620;2022-10-16T04:28:30;102198.47;;;10.37;100.00
36014;BME280;22275;43.208;27.620;2022-10-16T04:30:57;102200.81;;;10.45;100.00
36014;BME280;22275;43.208;27.620;2022-10-16T04:33:24;102189.22;;;10.96;100.00
36014;BME280;22275;43.208;27.620;2022-10-16T04:35:56;102195.50;;;11.16;100.00
36014;BME280;22275;43.208;27.620;2022-10-16T04:38:23;102196.47;;;10.91;100.00
36014;BME280;22275;43.208;27.620;2022-10-16T04:40:51;102199.25;;;11.10;100.00
36014;BME280;22275;43.208;27.620;2022-10-16T04:43:20;102205.16;;;10.93;100.00
36014;BME280;22275;43.208;27.620;2022-10-16T04:45:48;102206.44;;;10.83;100.00
36014;BME280;22275;43.208;27.620;2022-10-16T04:48:16;102207.13;;;10.88;100.00
36014;BME280;22275;43.208;27.620;2022-10-16T04:50:43;102209.69;;;10.90;100.00
36014;BME280;22275;43.208;27.620;2022-10-16T04:53:10;102208.38;;;11.02;100.00
36014;BME280;22275;43.208;27.620;2022-10-16T04:55:38;102214.13;;;10.89;100.00
36014;BME280;22275;43.208;27.620;2022-10-16T04:58:06;102210.09;;;11.03;100.00
36014;BME280;22275;43.208;27.620;2022-10-16T05:00:35;102214.81;;;11.18;100.00
36014;BME280;22275;43.208;27.620;2022-10-16T05:03:03;102217.75;;;11.32;100.00
36014;BME280;22275;43.208;27.620;2022-10-16T05:05:33;102213.78;;;11.43;100.00
36014;BME280;22275;43.208;27.620;2022-10-16T05:08:00;102218.44;;;11.37;100.00
36014;BME280;22275;43.208;27.620;2022-10-16T05:10:27;102221.88;;;11.16;100.00
36014;BME280;22275;43.208;27.620;2022-10-16T05:12:54;102226.22;;;11.40;100.00
36014;BME280;22275;43.208;27.620;2022-10-16T05:15:22;102226.44;;;11.57;100.00
36014;BME280;22275;43.208;27.620;2022-10-16T05:17:53;102220.53;;;11.29;100.00
36014;BME280;22275;43.208;27.620;2022-10-16T05:20:23;102222.34;;;11.27;100.00
36014;BME280;22275;43.208;27.620;2022-10-16T05:22:50;102231.06;;;11.29;100.00
36014;BME280;22275;43.208;27.620;2022-10-16T05:25:17;102232.94;;;11.48;100.00
36014;BME280;22275;43.208;27.620;2022-10-16T05:27:47;102237.22;;;11.74;100.00
36014;BME280;22275;43.208;27.620;2022-10-16T05:30:15;102245.50;;;11.64;100.00
36014;BME280;22275;43.208;27.620;2022-10-16T05:32:46;102239.81;;;11.96;100.00
36014;BME280;22275;43.208;27.620;2022-10-16T05:35:15;102250.34;;;11.97;100.00
36014;BME280;22275;43.208;27.620;2022-10-16T05:37:42;102247.00;;;11.92;100.00
36014;BME280;22275;43.208;27.620;2022-10-16T05:40:10;102248.94;;;12.09;100.00
36014;BME280;22275;43.208;27.620;2022-10-16T05:42:38;102249.81;;;12.09;100.00
36014;BME280;22275;43.208;27.620;2022-10-16T05:45:07;102251.16;;;12.20;100.00
36014;BME280;22275;43.208;27.620;2022-10-16T05:47:36;102252.22;;;12.16;100.00
36014;BME280;22275;43.208;27.620;2022-10-16T05:50:04;102251.84;;;12.45;100.00
36014;BME280;22275;43.208;27.620;2022-10-16T05:52:33;102260.16;;;12.56;100.00
36014;BME280;22275;43.208;27.620;2022-10-16T05:55:00;102265.31;;;12.59;100.00
36014;BME280;22275;43.208;27.620;2022-10-16T05:57:27;102262.66;;;12.79;100.00
36014;BME280;22275;43.208;27.620;2022-10-16T05:59:54;102260.41;;;12.90;100.00
36014;BME280;22275;43.208;27.620;2022-10-16T06:02:21;102259.59;;;13.08;100.00
36014;BME280;22275;43.208;27.620;2022-10-16T06:04:49;102254.97;;;13.32;100.00
36014;BME280;22275;43.208;27.620;2022-10-16T06:07:16;102261.72;;;13.75;100.00
36014;BME280;22275;43.208;27.620;2022-10-16T06:09:48;102265.97;;;13.79;100.00
36014;BME280;22275;43.208;27.620;2022-10-16T06:12:15;102271.59;;;13.90;100.00
36014;BME280;22275;43.208;27.620;2022-10-16T06:14:43;102268.81;;;14.10;100.00
36014;BME280;22275;43.208;27.620;2022-10-16T06:17:10;102272.66;;;14.39;100.00
36014;BME280;22275;43.208;27.620;2022-10-16T06:19:37;102270.22;;;14.17;100.00
36014;BME280;22275;43.208;27.620;2022-10-16T06:22:04;102277.41;;;14.15;100.00
36014;BME280;22275;43.208;27.620;2022-10-16T06:24:32;102271.13;;;13.99;100.00
36014;BME280;22275;43.208;27.620;2022-10-16T06:27:00;102275.41;;;13.85;100.00
36014;BME280;22275;43.208;27.620;2022-10-16T06:29:28;102272.81;;;13.83;100.00
36014;BME280;22275;43.208;27.620;2022-10-16T06:31:55;102278.28;;;13.97;100.00
36014;BME280;22275;43.208;27.620;2022-10-16T06:34:22;102282.69;;;14.15;100.00
36014;BME280;22275;43.208;27.620;2022-10-16T06:36:49;102288.28;;;14.09;100.00
36014;BME280;22275;43.208;27.620;2022-10-16T06:39:17;102282.84;;;14.12;100.00
36014;BME280;22275;43.208;27.620;2022-10-16T06:41:44;102293.44;;;14.12;100.00
36014;BME280;22275;43.208;27.620;2022-10-16T06:44:13;102292.59;;;14.29;100.00
36014;BME280;22275;43.208;27.620;2022-10-16T06:46:40;102293.00;;;14.21;100.00
36014;BME280;22275;43.208;27.620;2022-10-16T06:49:07;102289.88;;;14.30;100.00
36014;BME280;22275;43.208;27.620;2022-10-16T06:51:35;102298.94;;;14.26;100.00
36014;BME280;22275;43.208;27.620;2022-10-16T06:54:06;102304.75;;;14.52;100.00
36014;BME280;22275;43.208;27.620;2022-10-16T06:56:34;102307.00;;;14.59;100.00
36014;BME280;22275;43.208;27.620;2022-10-16T06:59:02;102307.28;;;14.70;100.00
36014;BME280;22275;43.208;27.620;2022-10-16T07:01:31;102304.69;;;15.03;100.00
36014;BME280;22275;43.208;27.620;2022-10-16T07:04:00;102303.03;;;15.18;100.00
36014;BME280;22275;43.208;27.620;2022-10-16T07:06:30;102298.22;;;15.24;100.00
36014;BME280;22275;43.208;27.620;2022-10-16T07:08:57;102301.06;;;15.54;100.00
36014;BME280;22275;43.208;27.620;2022-10-16T07:11:24;102301.41;;;15.64;100.00
36014;BME280;22275;43.208;27.620;2022-10-16T07:13:52;102299.19;;;15.72;100.00
36014;BME280;22275;43.208;27.620;2022-10-16T07:16:21;102300.03;;;15.88;100.00
36014;BME280;22275;43.208;27.620;2022-10-16T07:18:50;102286.34;;;16.25;100.00
36014;BME280;22275;43.208;27.620;2022-10-16T07:21:23;102289.28;;;16.35;100.00
36014;BME280;22275;43.208;27.620;2022-10-16T07:23:51;102294.88;;;16.46;100.00
36014;BME280;22275;43.208;27.620;2022-10-16T07:26:19;102295.88;;;16.43;100.00
36014;BME280;22275;43.208;27.620;2022-10-16T07:28:46;102300.44;;;16.57;100.00
36014;BME280;22275;43.208;27.620;2022-10-16T07:31:14;102303.50;;;16.79;100.00
36014;BME280;22275;43.208;27.620;2022-10-16T07:33:43;102290.38;;;16.62;100.00
36014;BME280;22275;43.208;27.620;2022-10-16T07:36:13;102296.59;;;17.05;100.00
36014;BME280;22275;43.208;27.620;2022-10-16T07:38:40;102294.97;;;16.88;100.00
36014;BME280;22275;43.208;27.620;2022-10-16T07:41:09;102306.63;;;16.72;100.00
36014;BME280;22275;43.208;27.620;2022-10-16T07:43:37;102302.25;;;16.71;100.00
36014;BME280;22275;43.208;27.620;2022-10-16T07:46:04;102301.53;;;16.83;100.00
36014;BME280;22275;43.208;27.620;2022-10-16T07:48:33;102304.47;;;16.48;100.00
36014;BME280;22275;43.208;27.620;2022-10-16T07:51:01;102306.03;;;16.66;100.00
36014;BME280;22275;43.208;27.620;2022-10-16T07:53:31;102305.84;;;16.70;100.00
36014;BME280;22275;43.208;27.620;2022-10-16T07:55:59;102297.13;;;16.67;100.00
36014;BME280;22275;43.208;27.620;2022-10-16T07:58:27;102298.22;;;16.93;100.00
36014;BME280;22275;43.208;27.620;2022-10-16T08:00:55;102289.38;;;17.07;100.00
36014;BME280;22275;43.208;27.620;2022-10-16T08:03:22;102294.56;;;16.94;100.00
36014;BME280;22275;43.208;27.620;2022-10-16T08:05:50;102290.13;;;16.95;100.00
36014;BME280;22275;43.208;27.620;2022-10-16T08:08:18;102303.25;;;17.12;100.00
36014;BME280;22275;43.208;27.620;2022-10-16T08:10:47;102289.19;;;17.24;100.00
36014;BME280;22275;43.208;27.620;2022-10-16T08:13:14;102286.31;;;17.27;100.00
36014;BME280;22275;43.208;27.620;2022-10-16T08:15:42;102293.94;;;17.33;100.00
36014;BME280;22275;43.208;27.620;2022-10-16T08:18:10;102292.03;;;17.35;100.00
36014;BME280;22275;43.208;27.620;2022-10-16T08:20:38;102281.16;;;17.52;100.00
36014;BME280;22275;43.208;27.620;2022-10-16T08:23:06;102291.75;;;17.54;100.00
36014;BME280;22275;43.208;27.620;2022-10-16T08:25:34;102293.34;;;17.70;100.00
36014;BME280;22275;43.208;27.620;2022-10-16T08:28:05;102284.34;;;17.86;100.00
36014;BME280;22275;43.208;27.620;2022-10-16T08:30:33;102291.00;;;17.93;100.00
36014;BME280;22275;43.208;27.620;2022-10-16T08:33:00;102282.69;;;17.97;100.00
36014;BME280;22275;43.208;27.620;2022-10-16T08:35:28;102268.78;;;18.19;100.00
36014;BME280;22275;43.208;27.620;2022-10-16T08:37:55;102273.00;;;18.35;100.00
36014;BME280;22275;43.208;27.620;2022-10-16T08:40:25;102281.69;;;18.12;100.00
36014;BME280;22275;43.208;27.620;2022-10-16T08:43:06;102290.78;;;17.96;100.00
36014;BME280;22275;43.208;27.620;2022-10-16T08:45:46;102293.81;;;18.16;100.00
36014;BME280;22275;43.208;27.620;2022-10-16T08:48:20;102290.44;;;17.88;100.00
36014;BME280;22275;43.208;27.620;2022-10-16T08:50:52;102299.69;;;17.82;100.00
36014;BME280;22275;43.208;27.620;2022-10-16T08:53:24;102291.88;;;18.06;100.00
36014;BME280;22275;43.208;27.620;2022-10-16T08:55:53;102290.13;;;18.19;100.00
36014;BME280;22275;43.208;27.620;2022-10-16T08:58:27;102288.63;;;18.15;100.00
36014;BME280;22275;43.208;27.620;2022-10-16T09:00:56;102286.81;;;18.15;100.00
36014;BME280;22275;43.208;27.620;2022-10-16T09:03:39;102289.16;;;18.20;100.00
36014;BME280;22275;43.208;27.620;2022-10-16T09:06:23;102283.53;;;18.24;100.00
36014;BME280;22275;43.208;27.620;2022-10-16T09:09:01;102279.16;;;18.50;100.00
36014;BME280;22275;43.208;27.620;2022-10-16T09:11:43;102288.34;;;18.59;100.00
36014;BME280;22275;43.208;27.620;2022-10-16T09:14:22;102277.41;;;18.49;100.00
36014;BME280;22275;43.208;27.620;2022-10-16T09:16:58;102271.38;;;18.72;100.00
36014;BME280;22275;43.208;27.620;2022-10-16T09:19:31;102278.19;;;18.89;100.00
36014;BME280;22275;43.208;27.620;2022-10-16T09:22:04;102275.94;;;18.83;100.00
36014;BME280;22275;43.208;27.620;2022-10-16T09:24:36;102275.53;;;18.89;100.00
36014;BME280;22275;43.208;27.620;2022-10-16T09:27:03;102288.44;;;18.82;100.00
36014;BME280;22275;43.208;27.620;2022-10-16T09:29:32;102270.41;;;18.86;100.00
36014;BME280;22275;43.208;27.620;2022-10-16T09:32:10;102264.19;;;19.11;100.00
36014;BME280;22275;43.208;27.620;2022-10-16T09:34:42;102253.63;;;18.97;100.00
36014;BME280;22275;43.208;27.620;2022-10-16T09:37:14;102268.16;;;18.92;100.00
36014;BME280;22275;43.208;27.620;2022-10-16T09:39:45;102270.03;;;19.16;100.00
36014;BME280;22275;43.208;27.620;2022-10-16T09:42:15;102280.66;;;18.92;100.00
36014;BME280;22275;43.208;27.620;2022-10-16T09:44:48;102270.94;;;19.04;100.00
36014;BME280;22275;43.208;27.620;2022-10-16T09:47:18;102275.19;;;18.93;100.00
36014;BME280;22275;43.208;27.620;2022-10-16T09:49:55;102266.97;;;18.97;100.00
36014;BME280;22275;43.208;27.620;2022-10-16T09:52:24;102269.88;;;19.06;100.00
36014;BME280;22275;43.208;27.620;2022-10-16T09:54:52;102265.59;;;19.04;99.06
36014;BME280;22275;43.208;27.620;2022-10-16T09:57:21;102268.47;;;19.01;100.00
36014;BME280;22275;43.208;27.620;2022-10-16T09:59:51;102267.97;;;18.96;100.00
36014;BME280;22275;43.208;27.620;2022-10-16T10:02:23;102240.53;;;19.30;100.00
36014;BME280;22275;43.208;27.620;2022-10-16T10:04:54;102260.00;;;19.32;100.00
36014;BME280;22275;43.208;27.620;2022-10-16T10:07:25;102265.16;;;19.10;100.00
36014;BME280;22275;43.208;27.620;2022-10-16T10:09:53;102263.00;;;19.02;100.00
36014;BME280;22275;43.208;27.620;2022-10-16T10:12:24;102236.91;;;19.31;100.00
36014;BME280;22275;43.208;27.620;2022-10-16T10:14:54;102255.41;;;19.70;100.00
36014;BME280;22275;43.208;27.620;2022-10-16T10:17:24;102264.03;;;19.50;100.00
36014;BME280;22275;43.208;27.620;2022-10-16T10:19:53;102245.03;;;19.29;100.00
36014;BME280;22275;43.208;27.620;2022-10-16T10:22:27;102260.66;;;19.23;100.00
36014;BME280;22275;43.208;27.620;2022-10-16T10:25:00;102252.75;;;19.09;100.00
36014;BME280;22275;43.208;27.620;2022-10-16T10:27:34;102263.88;;;19.03;99.38
36014;BME280;22275;43.208;27.620;2022-10-16T10:30:09;102241.59;;;19.27;98.27
36014;BME280;22275;43.208;27.620;2022-10-16T10:32:48;102243.66;;;19.24;100.00
36014;BME280;22275;43.208;27.620;2022-10-16T10:35:24;102250.50;;;19.64;97.80
36014;BME280;22275;43.208;27.620;2022-10-16T10:38:16;102246.94;;;20.00;91.88
36014;BME280;22275;43.208;27.620;2022-10-16T10:40:51;102242.19;;;19.56;88.64
36014;BME280;22275;43.208;27.620;2022-10-16T10:43:38;102253.81;;;19.68;89.91
36014;BME280;22275;43.208;27.620;2022-10-16T10:46:16;102250.28;;;19.67;87.24
36014;BME280;22275;43.208;27.620;2022-10-16T10:48:57;102244.50;;;19.73;87.00
36014;BME280;22275;43.208;27.620;2022-10-16T10:51:33;102241.09;;;19.71;87.85
36014;BME280;22275;43.208;27.620;2022-10-16T10:54:10;102239.97;;;19.86;90.18
36014;BME280;22275;43.208;27.620;2022-10-16T10:56:49;102235.84;;;19.93;89.12
36014;BME280;22275;43.208;27.620;2022-10-16T11:02:26;102231.34;;;19.46;88.25
36014;BME280;22275;43.208;27.620;2022-10-16T11:05:27;102234.25;;;19.43;86.74
36014;BME280;22275;43.208;27.620;2022-10-16T11:07:59;102231.34;;;19.46;88.59
36014;BME280;22275;43.208;27.620;2022-10-16T11:10:30;102223.25;;;19.59;89.81
36014;BME280;22275;43.208;27.620;2022-10-16T11:13:07;102230.31;;;19.84;87.52
36014;BME280;22275;43.208;27.620;2022-10-16T11:15:39;102237.59;;;19.82;86.03
36014;BME280;22275;43.208;27.620;2022-10-16T11:18:15;102224.50;;;20.14;86.39
36014;BME280;22275;43.208;27.620;2022-10-16T11:20:49;102230.66;;;20.03;82.20
36014;BME280;22275;43.208;27.620;2022-10-16T11:23:22;102234.06;;;19.81;85.06
36014;BME280;22275;43.208;27.620;2022-10-16T11:25:52;102227.22;;;20.01;86.70
36014;BME280;22275;43.208;27.620;2022-10-16T11:28:26;102244.09;;;19.90;87.08
36014;BME280;22275;43.208;27.620;2022-10-16T11:30:57;102225.59;;;20.11;87.09
36014;BME280;22275;43.208;27.620;2022-10-16T11:33:32;102238.13;;;20.22;86.68
36014;BME280;22275;43.208;27.620;2022-10-16T11:36:08;102227.03;;;20.39;84.12
36014;BME280;22275;43.208;27.620;2022-10-16T11:38:45;102236.03;;;20.38;79.69
36014;BME280;22275;43.208;27.620;2022-10-16T11:41:24;102234.25;;;20.15;81.26
36014;BME280;22275;43.208;27.620;2022-10-16T11:44:03;102225.97;;;20.18;80.18
36014;BME280;22275;43.208;27.620;2022-10-16T11:46:36;102226.44;;;20.12;80.90
36014;BME280;22275;43.208;27.620;2022-10-16T11:49:12;102232.84;;;20.33;81.59
36014;BME280;22275;43.208;27.620;2022-10-16T11:51:45;102235.81;;;20.17;79.75
36014;BME280;22275;43.208;27.620;2022-10-16T11:54:21;102222.81;;;20.24;79.24
36014;BME280;22275;43.208;27.620;2022-10-16T11:56:56;102222.38;;;20.30;80.04
36014;BME280;22275;43.208;27.620;2022-10-16T11:59:31;102232.16;;;20.18;80.25
36014;BME280;22275;43.208;27.620;2022-10-16T12:02:17;102228.34;;;20.33;80.58
36014;BME280;22275;43.208;27.620;2022-10-16T12:05:01;102230.09;;;20.45;80.67
36014;BME280;22275;43.208;27.620;2022-10-16T12:07:37;102223.31;;;20.75;79.76
36014;BME280;22275;43.208;27.620;2022-10-16T12:10:11;102232.44;;;20.61;78.34
36014;BME280;22275;43.208;27.620;2022-10-16T12:12:39;102218.69;;;20.66;77.23
36014;BME280;22275;43.208;27.620;2022-10-16T12:15:21;102214.22;;;20.77;75.98
36014;BME280;22275;43.208;27.620;2022-10-16T12:17:49;102218.81;;;20.75;75.90
36014;BME280;22275;43.208;27.620;2022-10-16T12:20:25;102226.13;;;20.84;74.60
36014;BME280;22275;43.208;27.620;2022-10-16T12:22:54;102243.50;;;20.56;74.65
36014;BME280;22275;43.208;27.620;2022-10-16T12:25:25;102224.63;;;20.47;75.68
36014;BME280;22275;43.208;27.620;2022-10-16T12:28:04;102223.91;;;20.56;75.08
36014;BME280;22275;43.208;27.620;2022-10-16T12:30:35;102233.13;;;20.52;74.65
36014;BME280;22275;43.208;27.620;2022-10-16T12:33:05;102234.00;;;20.52;74.71
36014;BME280;22275;43.208;27.620;2022-10-16T12:35:42;102234.63;;;20.56;75.38
36014;BME280;22275;43.208;27.620;2022-10-16T12:38:18;102233.13;;;20.52;74.86
36014;BME280;22275;43.208;27.620;2022-10-16T12:40:55;102250.44;;;20.59;73.57
36014;BME280;22275;43.208;27.620;2022-10-16T12:43:36;102250.22;;;20.62;74.29
36014;BME280;22275;43.208;27.620;2022-10-16T12:46:20;102243.94;;;20.39;75.19
36014;BME280;22275;43.208;27.620;2022-10-16T12:48:48;102250.91;;;20.53;74.80
36014;BME280;22275;43.208;27.620;2022-10-16T12:51:25;102248.16;;;20.77;74.83
36014;BME280;22275;43.208;27.620;2022-10-16T12:54:02;102258.75;;;20.89;73.17